Time;durP1;ratioP1;P1;durP2;ratioP2;P2;SDS_P1;SDS_P2;PMS_P1;PMS_P2;Temp;Humidity;BMP_temperature;BMP_pressure;BME280_temperature;BME280_humidity;BME280_pressure;Samples;Min_cycle;Max_cycle;Signal;HPM_P1;HPM_P2
2021/05/10 00:02:01;;;;;;;7.53;4.25;;;;;;;10.67;44.14;99920.88;1827396;78;21354;-57
2021/05/10 00:04:29;;;;;;;7.53;3.85;;;;;;;10.68;44.11;99922.61;1827495;78;21130;-57
2021/05/10 00:06:57;;;;;;;7.42;3.50;;;;;;;10.68;44.11;99920.45;1827262;78;21130;-57
2021/05/10 00:09:25;;;;;;;6.92;3.50;;;;;;;10.68;44.13;99912.70;1827343;78;21126;-55
2021/05/10 00:11:53;;;;;;;5.85;3.22;;;;;;;10.67;44.19;99907.96;1827279;78;21336;-59
2021/05/10 00:14:27;;;;;;;7.12;4.25;;;;;;;10.65;44.20;99915.66;1827230;78;21142;-55
2021/05/10 00:16:52;;;;;;;8.13;4.10;;;;;;;10.64;44.31;99911.34;1827180;78;21158;-55
2021/05/10 00:19:20;;;;;;;8.63;4.30;;;;;;;10.62;44.46;99915.58;1827370;77;21131;-56
2021/05/10 00:21:47;;;;;;;8.33;4.40;;;;;;;10.59;44.63;99918.09;1827113;77;21304;-56
2021/05/10 00:24:16;;;;;;;7.55;4.10;;;;;;;10.55;44.83;99918.83;1827129;78;21110;-57
2021/05/10 00:26:46;;;;;;;20.20;6.40;;;;;;;10.48;45.02;99911.79;1827055;78;21110;-57
2021/05/10 00:29:18;;;;;;;13.72;6.05;;;;;;;10.38;45.85;99911.05;1827030;78;21134;-57
2021/05/10 00:31:47;;;;;;;12.25;6.42;;;;;;;10.18;46.23;99908.79;1827179;77;21115;-58
2021/05/10 00:34:15;;;;;;;15.90;7.33;;;;;;;9.99;46.88;99910.38;1827068;78;21118;-56
2021/05/10 00:36:44;;;;;;;11.18;6.17;;;;;;;9.82;47.37;99907.34;1827067;78;21280;-59
2021/05/10 00:39:11;;;;;;;11.57;6.60;;;;;;;9.71;46.77;99903.55;1827303;78;21131;-56
2021/05/10 00:41:40;;;;;;;13.68;6.83;;;;;;;9.71;46.66;99909.58;1827365;77;21288;-57
2021/05/10 00:44:08;;;;;;;11.12;6.50;;;;;;;9.72;46.94;99911.34;1827101;78;21138;-57
2021/05/10 00:46:37;;;;;;;14.40;7.08;;;;;;;9.69;47.24;99904.82;1827392;78;21114;-56
2021/05/10 00:49:05;;;;;;;12.47;6.87;;;;;;;9.66;47.50;99908.99;1827110;77;21158;-57
2021/05/10 00:51:33;;;;;;;12.95;7.60;;;;;;;9.64;48.00;99919.66;1827082;77;21146;-56
2021/05/10 00:54:02;;;;;;;14.25;8.23;;;;;;;9.58;48.39;99922.06;1827113;78;21102;-56
2021/05/10 00:56:30;;;;;;;13.98;7.97;;;;;;;9.52;48.68;99924.05;1827128;77;21166;-55
2021/05/10 00:58:58;;;;;;;12.53;8.58;;;;;;;9.46;49.08;99923.42;1827415;77;21561;-56
2021/05/10 01:01:26;;;;;;;14.73;8.58;;;;;;;9.40;49.26;99921.95;1827367;77;21668;-56
2021/05/10 01:03:55;;;;;;;14.83;8.35;;;;;;;9.35;49.50;99923.09;1827105;77;21142;-54
2021/05/10 01:06:23;;;;;;;15.90;8.95;;;;;;;9.30;49.65;99925.08;1827198;78;21154;-57
2021/05/10 01:08:51;;;;;;;19.40;8.10;;;;;;;9.25;49.80;99928.78;1827347;78;21150;-57
2021/05/10 01:11:19;;;;;;;15.70;9.23;;;;;;;9.20;49.91;99923.03;1827381;77;21099;-57
2021/05/10 01:13:48;;;;;;;21.35;10.90;;;;;;;9.17;50.19;99924.23;1827253;77;21126;-57
2021/05/10 01:16:16;;;;;;;23.83;12.43;;;;;;;9.15;50.43;99931.03;1809229;78;21131;-56
2021/05/10 01:18:45;;;;;;;26.37;12.47;;;;;;;9.11;50.76;99935.22;1827248;78;21134;-55
2021/05/10 01:21:13;;;;;;;20.55;11.05;;;;;;;9.05;51.07;99937.58;1827142;78;21162;-57
2021/05/10 01:23:44;;;;;;;24.02;11.15;;;;;;;9.04;51.14;99939.70;1809164;78;21126;-56
2021/05/10 01:26:13;;;;;;;27.40;10.78;;;;;;;9.03;51.34;99934.97;1827327;78;21553;-56
2021/05/10 01:28:41;;;;;;;24.55;9.63;;;;;;;9.04;51.35;99935.84;1827081;78;21151;-55
2021/05/10 01:31:09;;;;;;;19.35;11.08;;;;;;;9.02;51.37;99937.48;1827144;77;21277;-57
2021/05/10 01:33:37;;;;;;;19.15;8.65;;;;;;;9.02;51.38;99940.05;1827211;78;21262;-55
2021/05/10 01:36:05;;;;;;;13.35;7.72;;;;;;;9.01;51.48;99939.19;1827246;77;21135;-57
2021/05/10 01:38:33;;;;;;;16.73;7.65;;;;;;;9.03;51.31;99945.27;1827015;78;21138;-55
2021/05/10 01:41:01;;;;;;;14.68;6.72;;;;;;;9.04;51.22;99944.84;1827037;78;21123;-56
2021/05/10 01:43:29;;;;;;;11.93;6.60;;;;;;;9.04;51.03;99946.14;1827049;78;21142;-55
2021/05/10 01:45:57;;;;;;;15.68;7.08;;;;;;;9.08;50.98;99947.58;1827121;77;21154;-56
2021/05/10 01:48:25;;;;;;;12.98;7.03;;;;;;;9.12;51.00;99944.68;1827245;77;21284;-55
2021/05/10 01:50:54;;;;;;;14.23;6.90;;;;;;;9.09;51.05;99945.88;1827159;77;21224;-56
2021/05/10 01:53:22;;;;;;;12.30;6.75;;;;;;;9.08;51.18;99946.68;1827313;78;21166;-58
2021/05/10 01:55:49;;;;;;;12.75;7.47;;;;;;;9.07;51.39;99953.95;1827261;78;21237;-57
2021/05/10 01:58:17;;;;;;;12.28;6.72;;;;;;;9.05;51.38;99953.89;1827015;77;21119;-59
2021/05/10 02:00:48;;;;;;;11.53;6.50;;;;;;;9.03;51.36;99952.09;1827090;78;21123;-55
2021/05/10 02:03:20;;;;;;;11.55;6.50;;;;;;;9.01;51.65;99949.91;1827573;78;21277;-55
2021/05/10 02:05:52;;;;;;;11.33;7.00;;;;;;;8.99;51.89;99954.13;1827638;78;21115;-58
2021/05/10 02:08:20;;;;;;;;;;;;;;;8.98;52.06;99951.97;1829791;77;21110;-57
2021/05/10 02:10:51;;;;;;;14.73;6.85;;;;;;;8.99;52.27;99955.41;1827262;77;20392;-59
2021/05/10 02:13:24;;;;;;;10.50;6.40;;;;;;;8.98;52.32;99958.79;1827189;78;21127;-57
2021/05/10 02:15:58;;;;;;;13.03;7.73;;;;;;;8.98;52.30;99966.51;1827297;78;21304;-58
2021/05/10 02:18:35;;;;;;;11.75;7.03;;;;;;;8.96;52.72;99966.48;1827290;78;21299;-56
2021/05/10 02:21:04;;;;;;;10.30;6.03;;;;;;;8.97;52.91;99973.78;1820699;78;21127;-56
2021/05/10 02:23:35;;;;;;;9.70;6.08;;;;;;;8.99;52.89;99966.99;1812848;78;21159;-56
2021/05/10 02:26:05;;;;;;;;;;;;;;;9.03;52.91;99968.44;1815464;79;21135;-57
2021/05/10 02:28:35;;;;;;;12.95;6.33;;;;;;;9.09;52.87;99972.91;1812870;79;20132;-56
2021/05/10 02:31:03;;;;;;;9.13;5.00;;;;;;;9.09;52.96;99968.63;1812691;79;21317;-55
2021/05/10 02:33:34;;;;;;;9.08;5.50;;;;;;;9.10;52.87;99965.63;1812788;78;21581;-56
2021/05/10 02:36:02;;;;;;;9.80;5.17;;;;;;;9.11;53.00;99966.98;1812867;78;21135;-55
2021/05/10 02:38:30;;;;;;;7.17;4.40;;;;;;;9.12;52.93;99970.02;1812756;78;21276;-63
2021/05/10 02:40:58;;;;;;;10.13;5.22;;;;;;;9.17;52.75;99968.88;1812803;79;21281;-56
2021/05/10 02:43:26;;;;;;;7.87;4.50;;;;;;;9.22;52.61;99969.91;1813036;79;21135;-54
2021/05/10 02:45:55;;;;;;;9.95;5.12;;;;;;;9.26;52.44;99966.62;1812914;79;21182;-53
2021/05/10 02:48:23;;;;;;;13.65;5.35;;;;;;;9.28;52.47;99967.52;1812922;78;21143;-58
2021/05/10 02:50:51;;;;;;;8.63;5.28;;;;;;;9.31;52.29;99972.79;1813130;78;21151;-56
2021/05/10 02:53:19;;;;;;;9.33;4.72;;;;;;;9.33;52.23;99971.53;1813232;78;21147;-55
2021/05/10 02:55:46;;;;;;;9.10;4.60;;;;;;;9.35;52.19;99979.77;1813068;79;21131;-59
2021/05/10 02:58:14;;;;;;;7.75;4.50;;;;;;;9.39;52.12;99977.28;1813105;78;21309;-56
2021/05/10 03:00:42;;;;;;;9.30;4.50;;;;;;;9.41;52.04;99980.80;1813063;78;21091;-60
2021/05/10 03:03:10;;;;;;;7.72;4.33;;;;;;;9.41;51.96;99979.50;1813199;78;21146;-57
2021/05/10 03:05:40;;;;;;;9.88;4.55;;;;;;;9.43;51.91;99987.74;1812819;78;21281;-55
2021/05/10 03:08:07;;;;;;;10.58;4.25;;;;;;;9.44;51.95;99980.88;1812932;78;21127;-54
2021/05/10 03:10:35;;;;;;;15.20;5.05;;;;;;;9.46;51.73;99987.84;1813106;78;21099;-55
2021/05/10 03:13:03;;;;;;;9.73;4.87;;;;;;;9.52;51.54;99984.60;1813105;78;21312;-57
2021/05/10 03:15:31;;;;;;;14.83;6.35;;;;;;;9.56;51.68;99986.43;1813018;79;21123;-56
2021/05/10 03:17:58;;;;;;;8.68;4.78;;;;;;;9.55;51.71;99980.83;1813150;78;21268;-56
2021/05/10 03:20:26;;;;;;;8.70;5.33;;;;;;;9.53;51.75;99983.77;1813022;78;21142;-56
2021/05/10 03:22:56;;;;;;;12.33;6.65;;;;;;;9.51;52.23;99985.41;1813083;79;21147;-57
2021/05/10 03:25:23;;;;;;;9.48;5.72;;;;;;;9.46;52.57;99990.83;1813056;79;21131;-56
2021/05/10 03:27:52;;;;;;;9.25;5.75;;;;;;;9.41;52.70;99985.95;1813142;79;21120;-59
2021/05/10 03:30:24;;;;;;;10.20;5.37;;;;;;;9.37;52.87;99996.58;1813056;78;21553;-56
2021/05/10 03:32:53;;;;;;;10.60;5.73;;;;;;;9.38;52.78;99993.58;1813321;79;21146;-55
2021/05/10 03:35:22;;;;;;;10.72;6.15;;;;;;;9.38;52.84;99994.45;1812808;78;21281;-58
2021/05/10 03:37:50;;;;;;;8.43;5.30;;;;;;;9.38;52.93;99994.88;1813092;78;21147;-59
2021/05/10 03:40:20;;;;;;;9.93;5.90;;;;;;;9.38;52.88;99996.16;1812769;78;21341;-57
2021/05/10 03:42:48;;;;;;;9.08;5.75;;;;;;;9.39;52.88;99999.19;1812771;78;21347;-56
2021/05/10 03:45:17;;;;;;;17.55;6.62;;;;;;;9.41;52.94;100008.71;1813039;79;21146;-56
2021/05/10 03:47:45;;;;;;;12.20;6.65;;;;;;;9.44;53.05;100014.38;1812970;79;21165;-57
2021/05/10 03:50:19;;;;;;;10.72;6.05;;;;;;;9.42;52.88;100011.77;1812766;79;21143;-57
2021/05/10 03:52:49;;;;;;;9.30;6.03;;;;;;;9.44;52.76;100014.38;1812885;78;21158;-57
2021/05/10 03:55:21;;;;;;;12.65;6.37;;;;;;;9.48;52.72;100014.53;1813136;79;21644;-58
2021/05/10 03:57:49;;;;;;;;;;;;;;;9.52;52.70;100019.39;1815716;78;21688;-56
2021/05/10 04:00:18;;;;;;;11.90;6.60;;;;;;;9.57;52.86;100021.70;1812952;79;20223;-58
2021/05/10 04:02:46;;;;;;;21.55;8.13;;;;;;;9.61;52.93;100026.53;1812948;78;21309;-57
2021/05/10 04:16:00;;;;;;;18.98;7.30;;;;;;;9.89;52.37;100031.70;1813103;78;21273;-57
2021/05/10 04:18:28;;;;;;;15.18;7.33;;;;;;;9.95;52.25;100039.66;1812964;79;21127;-59
2021/05/10 04:20:57;;;;;;;14.35;7.80;;;;;;;10.02;52.39;100032.09;1812882;78;21276;-58
2021/05/10 04:23:25;;;;;;;25.52;7.50;;;;;;;10.08;52.56;100034.45;1812954;78;21274;-58
2021/05/10 04:25:55;;;;;;;18.92;7.33;;;;;;;10.13;52.23;100036.75;1812772;78;21360;-56
2021/05/10 04:28:24;;;;;;;21.07;8.15;;;;;;;10.17;52.32;100033.42;1812880;78;21166;-55
2021/05/10 04:30:55;;;;;;;21.12;8.48;;;;;;;10.25;51.91;100036.64;1813116;79;21568;-56
2021/05/10 04:33:30;;;;;;;22.42;8.35;;;;;;;10.35;52.01;100041.27;1813209;78;21185;-58
2021/05/10 04:36:00;;;;;;;38.85;8.10;;;;;;;10.44;51.79;100038.97;1812750;78;21143;-56
2021/05/10 04:38:28;;;;;;;18.05;6.37;;;;;;;10.52;51.30;100047.80;1812872;79;21127;-57
2021/05/10 04:40:58;;;;;;;22.95;8.20;;;;;;;10.59;50.82;100047.16;1812730;78;21305;-56
2021/05/10 04:43:26;;;;;;;14.98;6.12;;;;;;;10.64;50.68;100050.73;1812751;78;21230;-57
2021/05/10 04:45:58;;;;;;;20.62;5.75;;;;;;;10.70;50.68;100048.73;1812696;78;21143;-56
2021/05/10 04:48:23;;;;;;;16.42;5.58;;;;;;;10.78;50.63;100052.40;1812825;78;21134;-56
2021/05/10 04:50:51;;;;;;;17.35;6.58;;;;;;;10.87;50.50;100053.08;1812944;79;21131;-59
2021/05/10 04:53:19;;;;;;;11.35;4.50;;;;;;;10.98;50.18;100056.81;1812941;78;21278;-59
2021/05/10 04:55:48;;;;;;;18.57;6.12;;;;;;;11.10;49.07;100058.86;1813072;79;21099;-55
2021/05/10 04:58:15;;;;;;;13.95;4.87;;;;;;;11.22;48.87;100066.04;1812695;78;21277;-57
2021/05/10 05:00:43;;;;;;;13.93;5.30;;;;;;;11.34;49.05;100065.07;1813145;78;21150;-57
2021/05/10 05:03:11;;;;;;;24.90;6.53;;;;;;;11.47;49.25;100064.57;1812906;78;21127;-56
2021/05/10 05:05:39;;;;;;;14.40;5.25;;;;;;;11.63;49.32;100071.41;1812743;78;21139;-59
2021/05/10 05:08:06;;;;;;;14.93;5.67;;;;;;;11.77;48.24;100072.59;1812739;79;21288;-56
2021/05/10 05:10:34;;;;;;;17.55;5.87;;;;;;;11.87;48.17;100076.31;1812997;78;21131;-57
2021/05/10 05:13:01;;;;;;;21.95;6.12;;;;;;;11.98;48.08;100073.55;1812744;79;21127;-59
2021/05/10 05:15:31;;;;;;;21.20;6.90;;;;;;;12.14;47.65;100075.66;1812634;78;21597;-58
2021/05/10 05:17:58;;;;;;;32.73;7.62;;;;;;;12.30;46.88;100069.53;1812715;78;21257;-55
2021/05/10 05:20:26;;;;;;;33.67;8.65;;;;;;;12.42;46.69;100075.41;1812683;78;21111;-60
2021/05/10 05:22:54;;;;;;;29.42;8.05;;;;;;;12.56;46.53;100072.66;1812857;78;21131;-57
2021/05/10 05:25:21;;;;;;;22.75;6.53;;;;;;;12.73;46.57;100076.91;1812690;78;21127;-58
2021/05/10 05:27:50;;;;;;;39.27;7.60;;;;;;;13.18;46.28;100078.21;1813010;79;21118;-56
2021/05/10 05:30:18;;;;;;;31.77;6.55;;;;;;;14.87;43.78;100078.61;1812711;79;21158;-59
2021/05/10 05:32:46;;;;;;;32.65;7.17;;;;;;;17.09;39.97;100084.11;1812808;79;21135;-61
2021/05/10 05:35:14;;;;;;;25.80;5.92;;;;;;;19.13;36.66;100079.47;1812934;78;21130;-55
2021/05/10 05:37:42;;;;;;;24.12;6.10;;;;;;;21.21;33.44;100082.62;1812793;79;21112;-60
2021/05/10 05:40:11;;;;;;;30.40;7.35;;;;;;;23.05;30.48;100092.97;1812785;78;21278;-57
2021/05/10 05:42:40;;;;;;;24.00;5.55;;;;;;;24.70;28.45;100100.24;1812905;78;21688;-60
2021/05/10 05:45:10;;;;;;;20.88;4.85;;;;;;;26.26;26.38;100102.38;1812732;78;21119;-56
2021/05/10 05:47:38;;;;;;;11.48;3.62;;;;;;;27.82;24.40;100103.49;1813084;79;21682;-60
2021/05/10 05:50:06;;;;;;;16.62;3.98;;;;;;;29.08;22.67;100112.57;1812880;78;21197;-57
2021/05/10 05:52:34;;;;;;;19.57;3.85;;;;;;;30.17;20.81;100118.31;1812886;78;21154;-59
2021/05/10 05:55:03;;;;;;;10.75;3.42;;;;;;;30.81;20.41;100116.72;1812960;78;21256;-59
2021/05/10 05:57:31;;;;;;;8.55;2.95;;;;;;;31.51;19.59;100123.99;1812953;79;21539;-57
2021/05/10 06:00:01;;;;;;;7.20;3.05;;;;;;;32.53;18.66;100129.09;1812910;78;21138;-59
2021/05/10 06:02:28;;;;;;;5.60;3.02;;;;;;;33.53;17.69;100134.80;1812883;79;21107;-59
2021/05/10 06:04:57;;;;;;;6.28;2.27;;;;;;;34.13;17.19;100137.55;1812866;79;21139;-59
2021/05/10 06:07:27;;;;;;;7.37;2.60;;;;;;;34.19;15.93;100144.30;1811429;79;21147;-58
2021/05/10 06:09:54;;;;;;;8.38;2.60;;;;;;;32.01;17.02;100145.59;1812704;78;21151;-59
2021/05/10 06:12:22;;;;;;;4.17;2.50;;;;;;;31.20;17.74;100146.19;1812900;78;21088;-57
2021/05/10 06:14:50;;;;;;;5.58;2.30;;;;;;;30.91;18.06;100135.30;1812847;79;21225;-59
2021/05/10 06:17:17;;;;;;;4.20;2.20;;;;;;;30.66;17.91;100138.42;1812652;78;21285;-58
2021/05/10 06:19:45;;;;;;;5.97;2.27;;;;;;;30.44;18.21;100140.88;1812839;79;21135;-59
2021/05/10 06:22:14;;;;;;;5.12;2.40;;;;;;;30.20;18.46;100136.78;1818814;78;21308;-58
2021/05/10 06:24:42;;;;;;;4.67;2.52;;;;;;;31.40;17.88;100141.07;1809651;78;21547;-59
2021/05/10 06:27:10;;;;;;;4.62;2.62;;;;;;;32.83;16.94;100150.88;1827242;78;21297;-59
2021/05/10 06:29:38;;;;;;;4.87;2.27;;;;;;;32.78;16.31;100152.98;1827274;77;21285;-59
2021/05/10 06:32:06;;;;;;;4.62;1.90;;;;;;;32.19;16.93;100151.16;1827304;78;21121;-61
2021/05/10 06:34:34;;;;;;;4.22;1.90;;;;;;;32.59;16.38;100145.22;1827271;78;21292;-59
2021/05/10 06:37:02;;;;;;;4.97;1.80;;;;;;;33.19;16.03;100157.55;1827285;77;21282;-59
2021/05/10 06:39:29;;;;;;;5.00;1.35;;;;;;;34.22;15.35;100157.03;1827343;77;21252;-58
2021/05/10 06:41:57;;;;;;;3.08;1.47;;;;;;;35.23;14.35;100159.78;1827342;77;21276;-58
2021/05/10 06:44:25;;;;;;;3.83;1.67;;;;;;;35.81;14.18;100166.73;1827290;78;21268;-59
2021/05/10 06:46:52;;;;;;;4.03;1.55;;;;;;;36.07;13.90;100166.97;1827022;78;21313;-59
2021/05/10 06:49:20;;;;;;;2.75;1.60;;;;;;;36.61;13.64;100170.91;1827186;77;21276;-59
2021/05/10 06:51:48;;;;;;;3.20;1.50;;;;;;;36.53;13.05;100175.16;1827000;78;21301;-59
2021/05/10 06:54:16;;;;;;;4.08;1.37;;;;;;;34.78;13.87;100170.13;1827010;78;21122;-59
2021/05/10 06:56:44;;;;;;;2.90;1.15;;;;;;;33.53;14.52;100166.91;1827211;78;21272;-60
2021/05/10 06:59:11;;;;;;;2.42;1.20;;;;;;;33.07;14.77;100162.70;1827250;78;21363;-61
2021/05/10 07:01:39;;;;;;;4.50;1.47;;;;;;;33.65;14.83;100159.94;1827174;78;21272;-61
2021/05/10 07:04:06;;;;;;;4.35;1.90;;;;;;;34.92;13.99;100162.45;1827301;78;21358;-61
2021/05/10 07:06:34;;;;;;;3.17;1.40;;;;;;;35.56;13.55;100163.16;1826981;77;21103;-60
2021/05/10 07:09:02;;;;;;;2.70;1.35;;;;;;;34.87;13.79;100161.93;1827300;77;21275;-58
2021/05/10 07:11:33;;;;;;;4.53;1.98;;;;;;;34.27;14.40;100162.05;1826997;77;21289;-60
2021/05/10 07:14:02;;;;;;;4.10;2.10;;;;;;;35.16;13.80;100158.05;1827365;78;21138;-62
2021/05/10 07:16:30;;;;;;;4.53;1.63;;;;;;;36.34;13.19;100167.68;1827337;78;21154;-62
2021/05/10 07:18:58;;;;;;;3.12;1.52;;;;;;;35.87;12.57;100174.32;1827124;78;21134;-61
2021/05/10 07:21:27;;;;;;;3.45;1.40;;;;;;;34.08;13.63;100167.81;1827116;78;21130;-61
2021/05/10 07:23:55;;;;;;;4.87;1.70;;;;;;;32.81;14.96;100160.80;1812442;78;21162;-61
2021/05/10 07:26:23;;;;;;;3.12;1.65;;;;;;;33.54;14.27;100162.45;1812813;79;21293;-59
2021/05/10 07:28:51;;;;;;;4.20;1.50;;;;;;;34.03;14.02;100160.54;1812988;78;21139;-58
2021/05/10 07:31:19;;;;;;;5.17;1.82;;;;;;;34.58;13.57;100160.83;1813270;78;21537;-61
2021/05/10 07:33:47;;;;;;;4.92;1.40;;;;;;;33.90;13.97;100150.64;1812846;79;21127;-60
2021/05/10 07:36:15;;;;;;;6.05;1.65;;;;;;;33.40;14.45;100155.30;1813004;79;21953;-58
2021/05/10 07:38:43;;;;;;;4.75;1.72;;;;;;;33.46;14.24;100154.44;1812775;79;21154;-58
2021/05/10 07:41:10;;;;;;;4.67;2.02;;;;;;;33.67;14.32;100145.49;1812849;79;21119;-59
2021/05/10 07:43:38;;;;;;;3.42;1.77;;;;;;;34.28;14.14;100148.55;1812825;79;21127;-60
2021/05/10 07:46:07;;;;;;;4.05;1.70;;;;;;;34.46;13.95;100145.08;1812828;79;21147;-60
2021/05/10 07:48:35;;;;;;;2.40;1.50;;;;;;;34.92;13.83;100141.84;1813043;79;21135;-61
2021/05/10 07:51:04;;;;;;;2.65;1.25;;;;;;;35.77;13.31;100139.72;1812807;78;21120;-60
2021/05/10 07:53:33;;;;;;;3.27;1.52;;;;;;;35.86;12.37;100142.58;1812726;79;21143;-61
2021/05/10 07:56:01;;;;;;;3.70;1.45;;;;;;;33.22;13.75;100136.80;1812755;78;21151;-62
2021/05/10 07:58:29;;;;;;;3.15;1.65;;;;;;;31.52;15.03;100133.26;1812746;79;21317;-61
2021/05/10 08:01:02;;;;;;;7.17;1.80;;;;;;;31.20;15.91;100120.84;1812809;78;21138;-60
2021/05/10 08:03:29;;;;;;;3.50;1.85;;;;;;;31.76;15.42;100121.63;1812906;79;21131;-61
2021/05/10 08:05:59;;;;;;;4.40;1.75;;;;;;;31.93;15.09;100120.67;1813223;79;21166;-61
2021/05/10 08:08:28;;;;;;;3.33;1.70;;;;;;;31.98;14.87;100120.38;1813139;79;21174;-61
2021/05/10 08:10:56;;;;;;;5.37;1.92;;;;;;;31.55;15.03;100117.55;1813018;79;21135;-61
2021/05/10 08:13:24;;;;;;;4.72;2.00;;;;;;;31.10;15.38;100121.35;1812781;78;21099;-62
2021/05/10 08:15:54;;;;;;;4.40;1.80;;;;;;;31.08;15.26;100126.38;1812850;78;21134;-61
2021/05/10 08:18:22;;;;;;;3.50;2.05;;;;;;;30.16;15.90;100124.59;1812729;79;21131;-59
2021/05/10 08:20:56;;;;;;;3.83;1.90;;;;;;;29.33;16.41;100122.02;1812775;78;21166;-59
2021/05/10 08:23:21;;;;;;;3.55;1.85;;;;;;;28.83;16.90;100112.81;1812983;78;21348;-63
2021/05/10 08:25:52;;;;;;;5.42;1.90;;;;;;;29.59;16.70;100109.66;1812760;79;21127;-62
2021/05/10 08:28:20;;;;;;;4.03;1.95;;;;;;;30.99;16.10;100102.44;1813047;79;21143;-62
2021/05/10 08:30:49;;;;;;;4.83;1.80;;;;;;;32.02;15.20;100104.56;1813108;79;21553;-61
2021/05/10 08:33:16;;;;;;;6.42;2.17;;;;;;;32.68;15.09;100102.38;1812728;78;21110;-60
2021/05/10 08:35:45;;;;;;;4.62;1.70;;;;;;;33.23;14.36;100100.22;1812695;79;21107;-62
2021/05/10 08:38:12;;;;;;;3.87;1.70;;;;;;;33.13;14.47;100100.41;1813023;78;21558;-59
2021/05/10 08:40:40;;;;;;;5.83;1.82;;;;;;;33.14;14.52;100095.45;1812744;79;21171;-60
2021/05/10 08:43:24;;;;;;;2.90;1.52;;;;;;;33.68;14.30;100095.47;1812795;78;21154;-59
2021/05/10 08:46:00;;;;;;;4.87;1.57;;;;;;;33.61;14.02;100088.81;1813107;79;21692;-59
2021/05/10 08:48:25;;;;;;;2.95;1.60;;;;;;;33.28;14.67;100089.59;1812024;78;21257;-59
2021/05/10 08:50:55;;;;;;;3.30;1.62;;;;;;;33.42;14.68;100084.66;1812908;79;21119;-60
2021/05/10 08:53:41;;;;;;;3.55;1.60;;;;;;;33.30;14.40;100076.09;1813079;78;21648;-58
2021/05/10 08:56:09;;;;;;;3.30;1.70;;;;;;;33.31;14.37;100072.48;1813058;78;21135;-59
2021/05/10 08:58:43;;;;;;;4.53;1.73;;;;;;;33.10;14.54;100076.55;1812934;78;21159;-59
2021/05/10 09:01:13;;;;;;;3.37;1.72;;;;;;;32.97;14.41;100077.30;1812716;78;21333;-59
2021/05/10 09:03:44;;;;;;;2.67;1.37;;;;;;;32.45;14.67;100071.22;1813372;78;21506;-60
2021/05/10 09:06:21;;;;;;;2.87;1.70;;;;;;;31.92;15.00;100058.83;1812805;78;21135;-62
2021/05/10 09:08:51;;;;;;;4.08;2.08;;;;;;;31.05;15.49;100051.91;1812355;78;21139;-61
2021/05/10 09:11:20;;;;;;;3.90;1.80;;;;;;;30.00;15.92;100051.31;1812982;79;21549;-59
2021/05/10 09:13:58;;;;;;;;;;;;;;;28.77;16.92;100054.16;1815438;78;21115;-59
2021/05/10 09:16:27;;;;;;;3.42;2.00;;;;;;;27.49;17.64;100046.91;1812729;78;20140;-58
2021/05/10 09:19:00;;;;;;;5.37;2.62;;;;;;;26.35;18.51;100036.32;1813003;79;21564;-59
2021/05/10 09:21:30;;;;;;;4.90;2.30;;;;;;;25.59;19.43;100038.52;1812811;79;21135;-57
2021/05/10 09:24:00;;;;;;;4.33;2.30;;;;;;;24.98;20.05;100038.23;1814282;78;21264;-60
2021/05/10 09:26:32;;;;;;;4.72;2.22;;;;;;;24.39;20.85;100038.22;1827039;77;21202;-58
2021/05/10 09:29:04;;;;;;;3.85;2.08;;;;;;;23.67;21.41;100029.14;1827072;77;21157;-59
2021/05/10 09:31:36;;;;;;;3.45;2.12;;;;;;;22.89;22.19;100027.89;1825723;78;21138;-59
2021/05/10 09:34:10;;;;;;;5.25;2.42;;;;;;;22.29;22.97;100029.17;1826093;77;21114;-59
2021/05/10 09:36:40;;;;;;;6.40;2.60;;;;;;;21.59;23.96;100025.18;1834811;78;21142;-61
2021/05/10 09:39:27;;;;;;;5.50;2.92;;;;;;;21.18;24.85;100018.81;1827126;77;21556;-60
2021/05/10 09:42:06;;;;;;;4.83;2.80;;;;;;;20.87;24.72;100013.16;1826590;77;21560;-61
2021/05/10 09:44:45;;;;;;;6.58;2.62;;;;;;;20.62;24.96;100013.48;1827006;77;21130;-60
2021/05/10 09:47:21;;;;;;;5.90;2.80;;;;;;;20.44;25.35;100001.90;1827311;77;21623;-59
2021/05/10 09:49:50;;;;;;;5.12;2.90;;;;;;;20.26;25.65;99999.06;1827038;78;21149;-61
2021/05/10 09:52:22;;;;;;;4.97;2.98;;;;;;;20.01;25.62;99994.53;1827115;78;21122;-59
2021/05/10 09:54:56;;;;;;;6.28;3.02;;;;;;;19.79;26.06;99993.88;1827020;78;21281;-59
2021/05/10 09:57:27;;;;;;;4.12;2.75;;;;;;;19.60;27.44;99988.80;1826795;78;21129;-58
2021/05/10 10:00:20;;;;;;;7.67;3.20;;;;;;;19.42;26.88;99985.91;1827278;77;21545;-59
2021/05/10 10:02:48;;;;;;;5.72;2.85;;;;;;;19.03;27.46;99981.84;1827153;78;21127;-58
2021/05/10 10:05:18;;;;;;;4.70;2.77;;;;;;;18.53;28.26;99979.09;1827037;78;21130;-59
2021/05/10 10:07:47;;;;;;;5.08;2.87;;;;;;;18.29;28.77;99977.44;1827295;77;21106;-59
2021/05/10 10:10:16;;;;;;;5.53;2.75;;;;;;;18.29;28.69;99973.52;1827174;77;21110;-59
2021/05/10 10:12:44;;;;;;;4.53;2.60;;;;;;;18.36;29.03;99966.09;1827044;78;21135;-58
2021/05/10 10:15:13;;;;;;;6.10;2.70;;;;;;;18.37;28.77;99957.39;1827068;78;21168;-56
2021/05/10 10:17:46;;;;;;;5.58;2.55;;;;;;;18.48;28.86;99962.56;1827424;78;21667;-57
2021/05/10 10:20:16;;;;;;;6.58;2.90;;;;;;;18.63;28.47;99959.41;1827239;78;21146;-59
2021/05/10 10:22:45;;;;;;;5.92;2.87;;;;;;;18.73;28.23;99948.47;1809209;78;21102;-58
2021/05/10 10:25:13;;;;;;;4.70;2.83;;;;;;;18.67;28.33;99957.64;1819854;78;21151;-61
2021/05/10 10:27:47;;;;;;;5.87;2.52;;;;;;;18.46;28.61;99955.16;1811380;79;21123;-61
2021/05/10 10:30:17;;;;;;;9.18;2.75;;;;;;;18.33;29.15;99956.52;1812604;79;21131;-59
2021/05/10 10:32:45;;;;;;;4.90;2.87;;;;;;;18.38;28.96;99949.97;1812613;78;21154;-61
2021/05/10 10:35:16;;;;;;;4.90;2.30;;;;;;;18.52;29.34;99943.34;1811111;78;21139;-59
2021/05/10 10:37:45;;;;;;;5.20;2.08;;;;;;;18.75;28.47;99940.21;1812960;79;21568;-58
2021/05/10 10:40:24;;;;;;;6.87;3.17;;;;;;;18.97;28.50;99941.35;1812685;79;21123;-60
2021/05/10 10:42:51;;;;;;;4.50;2.72;;;;;;;19.16;28.34;99929.88;1812686;78;21146;-59
2021/05/10 10:45:23;;;;;;;4.12;2.58;;;;;;;19.20;28.03;99925.02;1812653;79;21269;-59
2021/05/10 10:47:57;;;;;;;3.75;2.33;;;;;;;19.36;28.22;99927.50;1812623;79;21127;-57
2021/05/10 10:50:28;;;;;;;4.65;2.33;;;;;;;19.52;27.77;99928.66;1812652;79;21163;-59
2021/05/10 10:52:58;;;;;;;;;;;;;;;19.62;27.62;99926.81;1815327;79;21147;-60
2021/05/10 10:55:38;;;;;;;5.15;2.37;;;;;;;19.70;27.73;99926.31;1813006;79;20432;-60
2021/05/10 10:58:20;;;;;;;6.10;2.70;;;;;;;19.73;27.76;99925.41;1812764;79;21128;-61
2021/05/10 11:01:18;;;;;;;4.25;2.50;;;;;;;19.85;27.64;99923.11;1813036;78;21537;-59
2021/05/10 11:03:45;;;;;;;4.30;2.40;;;;;;;19.80;27.68;99923.16;1812840;78;21096;-60
2021/05/10 11:06:14;;;;;;;8.68;2.83;;;;;;;19.79;28.02;99916.16;1812862;78;21135;-60
2021/05/10 11:08:55;;;;;;;6.30;2.98;;;;;;;19.81;27.78;99910.47;1812888;79;21123;-59
2021/05/10 11:11:39;;;;;;;5.05;2.98;;;;;;;19.87;28.11;99907.80;1812848;78;21119;-60
2021/05/10 11:14:15;;;;;;;6.33;3.00;;;;;;;20.06;27.55;99905.81;1812802;79;21135;-58
2021/05/10 11:16:56;;;;;;;5.15;2.80;;;;;;;20.30;27.85;99895.88;1812824;79;21143;-60
2021/05/10 11:19:37;;;;;;;7.17;3.12;;;;;;;20.49;27.10;99891.27;1812463;78;21147;-61
2021/05/10 11:22:35;;;;;;;6.00;2.70;;;;;;;20.55;27.01;99889.88;1813032;79;21163;-61
2021/05/10 11:25:36;;;;;;;7.80;2.70;;;;;;;20.48;26.83;99885.16;1812745;78;21167;-57
2021/05/10 11:28:28;;;;;;;5.83;2.85;;;;;;;20.30;27.00;99890.64;1813052;79;21131;-59
2021/05/10 11:31:10;;;;;;;5.45;2.85;;;;;;;20.21;26.77;99881.61;1792253;78;21146;-58
2021/05/10 11:33:59;;;;;;;5.28;3.00;;;;;;;20.28;26.40;99878.02;1812869;78;21289;-59
2021/05/10 11:36:33;;;;;;;7.62;3.02;;;;;;;20.29;26.21;99875.36;1812751;78;21143;-58
2021/05/10 11:39:12;;;;;;;5.83;2.67;;;;;;;20.32;26.21;99868.75;1812835;78;21099;-60
2021/05/10 11:41:43;;;;;;;7.47;2.80;;;;;;;20.31;26.18;99868.80;1813028;79;21263;-58
2021/05/10 11:44:28;;;;;;;7.70;3.20;;;;;;;20.24;26.18;99865.38;1813033;78;21530;-60
2021/05/10 11:46:59;;;;;;;10.70;3.00;;;;;;;20.35;26.32;99865.22;1796334;78;21170;-60
2021/05/10 11:49:42;;;;;;;4.90;2.87;;;;;;;20.43;26.17;99855.52;1812776;78;21210;-60
2021/05/10 11:52:16;;;;;;;9.28;3.50;;;;;;;20.41;25.99;99861.67;1812744;79;21131;-60
2021/05/10 11:54:52;;;;;;;4.37;2.52;;;;;;;20.42;25.81;99859.46;1812914;78;21203;-60